ěÝzenÝ letovÚho provozu ╚eskÚ republiky
Letiste: LKCS Aktualizace: 29.05.2023 14:00:39  UTC
 METAR LKCS 29.05. 14:00 ...
METAR LKCS 291400Z AUTO 05006KT 360V100 CAVOK 22/07 Q1018=